createdAt,value
2017-07-21T00:01:42.329Z,18.90
2017-07-21T00:04:11.753Z,18.80
2017-07-21T00:06:41.019Z,18.80
2017-07-21T00:09:09.460Z,18.80
2017-07-21T00:11:39.024Z,18.70
2017-07-21T00:14:07.453Z,18.70
2017-07-21T00:16:35.820Z,18.70
2017-07-21T00:19:04.602Z,18.70
2017-07-21T00:21:33.058Z,18.70
2017-07-21T00:24:01.981Z,18.60
2017-07-21T00:26:31.457Z,18.60
2017-07-21T00:28:59.886Z,18.60
2017-07-21T00:31:28.529Z,18.60
2017-07-21T00:33:57.926Z,18.70
2017-07-21T00:36:26.456Z,18.60
2017-07-21T00:38:54.837Z,18.70
2017-07-21T00:41:24.084Z,18.60
2017-07-21T00:43:52.427Z,18.60
2017-07-21T00:46:20.764Z,18.60
2017-07-21T00:48:49.396Z,18.60
2017-07-21T00:51:17.717Z,18.60
2017-07-21T00:53:46.050Z,18.50
2017-07-21T00:56:16.594Z,18.60
2017-07-21T00:58:45.904Z,18.60
2017-07-21T01:01:14.244Z,18.60
2017-07-21T01:03:43.432Z,18.60
2017-07-21T01:06:11.772Z,18.60
2017-07-21T01:08:41.361Z,18.60
2017-07-21T01:11:10.050Z,18.60
2017-07-21T01:13:39.768Z,18.60
2017-07-21T01:16:08.104Z,18.60
2017-07-21T01:18:36.709Z,18.50
2017-07-21T01:21:05.083Z,18.50
2017-07-21T01:23:33.484Z,18.50
2017-07-21T01:26:02.217Z,18.40
2017-07-21T01:28:30.753Z,18.40
2017-07-21T01:30:59.292Z,18.40
2017-07-21T01:33:28.130Z,18.40
2017-07-21T01:35:56.514Z,18.40
2017-07-21T01:38:24.910Z,18.30
2017-07-21T01:40:53.584Z,18.30
2017-07-21T01:43:21.973Z,18.20
2017-07-21T01:45:50.313Z,18.20
2017-07-21T01:48:19.698Z,18.20
2017-07-21T01:50:48.072Z,18.20
2017-07-21T01:53:16.441Z,18.20
2017-07-21T01:55:46.401Z,18.20
2017-07-21T01:58:14.767Z,18.20
2017-07-21T02:00:43.160Z,18.10
2017-07-21T02:03:12.049Z,18.10
2017-07-21T02:05:40.376Z,18.10
2017-07-21T02:08:08.733Z,18.10
2017-07-21T02:10:37.505Z,18.00
2017-07-21T02:13:06.082Z,18.00
2017-07-21T02:15:34.612Z,18.00
2017-07-21T02:18:04.346Z,17.90
2017-07-21T02:20:33.383Z,17.90
2017-07-21T02:23:03.945Z,17.80
2017-07-21T02:25:34.029Z,17.80
2017-07-21T02:28:04.004Z,17.80
2017-07-21T02:30:32.734Z,17.80
2017-07-21T02:33:03.982Z,17.80
2017-07-21T02:35:32.565Z,17.80
2017-07-21T02:38:01.813Z,17.70
2017-07-21T02:40:32.173Z,17.70
2017-07-21T02:43:01.481Z,17.70
2017-07-21T02:45:32.582Z,17.70
2017-07-21T02:48:02.801Z,17.60
2017-07-21T02:50:31.830Z,17.60
2017-07-21T02:53:02.971Z,17.60
2017-07-21T02:55:32.722Z,17.50
2017-07-21T02:58:01.593Z,17.40
2017-07-21T03:00:30.264Z,17.30
2017-07-21T03:03:01.800Z,17.30
2017-07-21T03:05:30.309Z,17.20
2017-07-21T03:07:59.154Z,17.20
2017-07-21T03:10:29.421Z,17.20
2017-07-21T03:12:59.757Z,17.10
2017-07-21T03:15:29.643Z,17.10
2017-07-21T03:17:59.586Z,17.10
2017-07-21T03:20:29.560Z,17.00
2017-07-21T03:23:11.372Z,17.00
2017-07-21T03:25:39.835Z,17.00
2017-07-21T03:28:09.341Z,16.90
2017-07-21T03:30:38.172Z,16.80
2017-07-21T03:33:06.713Z,16.80
2017-07-21T03:35:36.129Z,16.80
2017-07-21T03:38:05.563Z,16.80
2017-07-21T03:40:34.625Z,16.70
2017-07-21T03:43:04.271Z,16.70
2017-07-21T03:45:34.661Z,16.70
2017-07-21T03:48:03.452Z,16.70
2017-07-21T03:50:33.465Z,16.70
2017-07-21T03:53:03.131Z,16.60
2017-07-21T03:55:33.127Z,16.60
2017-07-21T03:58:02.227Z,16.60
2017-07-21T04:00:33.001Z,16.60
2017-07-21T04:03:03.866Z,16.50
2017-07-21T04:05:33.138Z,16.60
2017-07-21T04:08:02.859Z,16.50
2017-07-21T04:10:31.705Z,16.50
2017-07-21T04:13:01.937Z,16.50
2017-07-21T04:15:31.088Z,16.50
2017-07-21T04:18:00.213Z,16.50
2017-07-21T04:20:29.563Z,16.60
2017-07-21T04:23:00.121Z,16.60
2017-07-21T04:25:31.172Z,16.60
2017-07-21T04:28:01.065Z,16.60
2017-07-21T04:30:30.439Z,16.60
2017-07-21T04:33:00.233Z,16.70
2017-07-21T04:35:32.246Z,16.80
2017-07-21T04:38:01.623Z,16.70
2017-07-21T04:40:31.811Z,16.80
2017-07-21T04:43:03.131Z,16.80
2017-07-21T04:45:33.305Z,16.80
2017-07-21T04:48:02.205Z,16.70
2017-07-21T04:50:31.437Z,16.80
2017-07-21T04:53:01.292Z,16.70
2017-07-21T04:55:30.291Z,16.70
2017-07-21T04:58:00.347Z,16.70
2017-07-21T05:00:29.738Z,16.70
2017-07-21T05:02:58.597Z,16.60
2017-07-21T05:05:28.050Z,16.60
2017-07-21T05:07:56.458Z,16.70
2017-07-21T05:10:24.933Z,16.60
2017-07-21T05:12:53.309Z,16.70
2017-07-21T05:15:22.244Z,16.60
2017-07-21T05:17:51.114Z,16.60
2017-07-21T05:20:21.985Z,16.60
2017-07-21T05:22:50.302Z,16.60
2017-07-21T05:25:19.377Z,16.60
2017-07-21T05:27:48.979Z,16.60
2017-07-21T05:30:17.291Z,16.60
2017-07-21T05:32:45.592Z,16.70
2017-07-21T05:35:15.030Z,16.80
2017-07-21T05:37:43.364Z,16.80
2017-07-21T05:40:11.950Z,16.90
2017-07-21T05:42:46.628Z,17.00
2017-07-21T05:45:21.688Z,17.00
2017-07-21T05:47:50.268Z,17.00
2017-07-21T05:50:18.930Z,17.00
2017-07-21T05:52:47.281Z,17.00
2017-07-21T05:55:16.469Z,17.10
2017-07-21T05:57:44.806Z,17.10
2017-07-21T06:00:13.883Z,17.20
2017-07-21T06:02:42.585Z,17.20
2017-07-21T06:05:11.024Z,17.30
2017-07-21T06:07:39.479Z,17.40
2017-07-21T06:10:08.081Z,17.40
2017-07-21T06:12:37.356Z,17.50
2017-07-21T06:15:06.395Z,17.60
2017-07-21T06:17:37.965Z,17.70
2017-07-21T06:20:06.503Z,17.70
2017-07-21T06:22:35.006Z,17.80
2017-07-21T06:25:04.095Z,17.80
2017-07-21T06:27:33.573Z,17.90
2017-07-21T06:30:02.507Z,17.90
2017-07-21T06:32:32.469Z,17.90
2017-07-21T06:35:01.860Z,17.80
2017-07-21T06:37:30.538Z,17.80
2017-07-21T06:39:59.911Z,17.70
2017-07-21T06:42:28.494Z,17.80
2017-07-21T06:44:56.828Z,17.80
2017-07-21T06:47:25.822Z,17.80
2017-07-21T06:49:54.122Z,17.90
2017-07-21T06:52:22.444Z,17.90
2017-07-21T06:54:51.551Z,18.00
2017-07-21T06:57:19.889Z,18.10
2017-07-21T06:59:48.222Z,18.20
2017-07-21T07:02:19.477Z,18.30
2017-07-21T07:04:47.780Z,18.30
2017-07-21T07:07:16.192Z,18.30
2017-07-21T07:09:44.790Z,18.40
2017-07-21T07:12:13.160Z,18.50
2017-07-21T07:14:41.501Z,18.50
2017-07-21T07:17:10.556Z,18.40
2017-07-21T07:19:39.770Z,18.30
2017-07-21T07:22:08.194Z,18.40
2017-07-21T07:24:37.041Z,18.50
2017-07-21T07:27:05.649Z,18.60
2017-07-21T07:29:34.238Z,18.80
2017-07-21T07:32:02.952Z,18.80
2017-07-21T07:34:32.456Z,18.90
2017-07-21T07:37:01.176Z,18.90
2017-07-21T07:39:29.988Z,18.90
2017-07-21T07:41:58.827Z,18.70
2017-07-21T07:44:27.496Z,18.70
2017-07-21T07:46:56.240Z,18.70
2017-07-21T07:49:24.565Z,18.70
2017-07-21T07:51:52.893Z,18.70
2017-07-21T07:54:21.430Z,18.80
2017-07-21T07:56:49.845Z,19.00
2017-07-21T07:59:19.161Z,19.10
2017-07-21T08:04:17.651Z,19.00
2017-07-21T08:06:45.998Z,19.00
2017-07-21T08:09:15.025Z,18.90
2017-07-21T08:11:43.405Z,19.00
2017-07-21T08:14:11.810Z,19.00
2017-07-21T08:16:40.443Z,19.10
2017-07-21T08:19:09.028Z,19.30
2017-07-21T08:21:37.563Z,19.40
2017-07-21T08:24:06.607Z,19.60
2017-07-21T08:26:35.177Z,19.60
2017-07-21T08:29:03.843Z,19.60
2017-07-21T08:31:32.843Z,19.70
2017-07-21T08:34:01.688Z,19.70
2017-07-21T08:36:30.981Z,19.80
2017-07-21T08:39:01.866Z,19.70
2017-07-21T08:41:30.894Z,19.70
2017-07-21T08:43:59.989Z,19.60
2017-07-21T08:46:29.673Z,19.70
2017-07-21T08:48:59.711Z,19.70
2017-07-21T08:51:29.415Z,20.00
2017-07-21T08:53:59.113Z,20.00
2017-07-21T08:56:27.783Z,20.10
2017-07-21T08:58:57.385Z,19.90
2017-07-21T09:01:28.504Z,19.80
2017-07-21T09:03:57.745Z,19.90
2017-07-21T09:06:26.239Z,19.90
2017-07-21T09:08:55.673Z,20.20
2017-07-21T09:11:24.025Z,20.20
2017-07-21T09:13:52.356Z,20.40
2017-07-21T09:16:21.192Z,20.50
2017-07-21T09:18:49.516Z,20.50
2017-07-21T09:21:18.597Z,20.50
2017-07-21T09:23:48.127Z,20.60
2017-07-21T09:26:16.447Z,20.60
2017-07-21T09:28:45.551Z,20.70
2017-07-21T09:31:14.141Z,20.70
2017-07-21T09:33:42.449Z,20.80
2017-07-21T09:36:10.967Z,20.90
2017-07-21T09:38:39.686Z,20.90
2017-07-21T09:41:08.055Z,20.90
2017-07-21T09:43:37.279Z,20.70
2017-07-21T09:46:05.984Z,20.70
2017-07-21T09:48:34.467Z,20.80
2017-07-21T09:51:03.689Z,21.90
2017-07-21T09:53:32.570Z,21.90
2017-07-21T09:56:01.008Z,22.70
2017-07-21T09:58:29.781Z,23.20
2017-07-21T10:00:59.025Z,23.50
2017-07-21T10:03:28.508Z,24.10
2017-07-21T10:05:58.221Z,24.10
2017-07-21T10:08:27.079Z,24.40
2017-07-21T10:10:55.458Z,24.80
2017-07-21T10:13:23.769Z,25.10
2017-07-21T10:15:52.367Z,25.30
2017-07-21T10:18:20.696Z,25.40
2017-07-21T10:20:49.021Z,25.60
2017-07-21T10:23:18.168Z,26.10
2017-07-21T10:25:46.584Z,27.00
2017-07-21T10:28:15.671Z,27.60
2017-07-21T10:30:44.172Z,27.50
2017-07-21T10:33:12.530Z,27.80
2017-07-21T10:35:40.880Z,27.60
2017-07-21T10:38:10.187Z,27.70
2017-07-21T10:40:39.754Z,28.30
2017-07-21T10:43:08.307Z,27.70
2017-07-21T10:45:37.266Z,26.00
2017-07-21T10:48:05.888Z,24.80
2017-07-21T10:50:35.120Z,24.90
2017-07-21T10:53:03.929Z,24.90
2017-07-21T10:55:33.501Z,26.20
2017-07-21T10:58:02.444Z,26.20
2017-07-21T11:00:32.318Z,27.30
2017-07-21T11:03:00.990Z,27.30
2017-07-21T11:05:29.673Z,27.70
2017-07-21T11:07:58.333Z,27.80
2017-07-21T11:10:27.515Z,28.50
2017-07-21T11:12:56.113Z,28.50
2017-07-21T11:15:25.494Z,28.60
2017-07-21T11:17:54.544Z,28.70
2017-07-21T11:20:22.854Z,28.90
2017-07-21T11:22:52.578Z,29.00
2017-07-21T11:25:23.026Z,28.90
2017-07-21T11:27:51.425Z,27.70
2017-07-21T11:30:20.539Z,27.70
2017-07-21T11:32:49.865Z,27.60
2017-07-21T11:35:18.827Z,27.80
2017-07-21T11:37:47.189Z,28.30
2017-07-21T11:40:17.479Z,28.50
2017-07-21T11:42:45.798Z,28.20
2017-07-21T11:45:14.333Z,28.10
2017-07-21T11:47:42.660Z,28.10
2017-07-21T11:50:11.262Z,28.70
2017-07-21T11:52:40.535Z,29.20
2017-07-21T11:55:08.882Z,29.10
2017-07-21T11:57:37.377Z,29.10
2017-07-21T12:00:05.971Z,28.80
2017-07-21T12:02:35.236Z,29.50
2017-07-21T12:05:03.601Z,29.40
2017-07-21T12:07:32.573Z,29.30
2017-07-21T12:10:02.051Z,28.70
2017-07-21T12:12:31.054Z,28.60
2017-07-21T12:15:01.018Z,28.40
2017-07-21T12:17:30.024Z,28.10
2017-07-21T12:19:58.884Z,28.20
2017-07-21T12:22:28.128Z,28.20
2017-07-21T12:24:56.605Z,28.70
2017-07-21T12:27:25.101Z,28.90
2017-07-21T12:29:54.241Z,29.50
2017-07-21T12:32:22.616Z,29.80
2017-07-21T12:34:50.963Z,29.60
2017-07-21T12:37:20.656Z,29.40
2017-07-21T12:39:48.967Z,29.30
2017-07-21T12:42:17.310Z,29.40
2017-07-21T12:44:47.049Z,30.00
2017-07-21T12:47:15.380Z,30.00
2017-07-21T12:49:44.579Z,30.10
2017-07-21T12:52:13.419Z,30.10
2017-07-21T12:54:42.134Z,30.20
2017-07-21T12:57:10.683Z,30.30
2017-07-21T12:59:40.958Z,29.90
2017-07-21T13:02:09.437Z,30.20
2017-07-21T13:04:38.541Z,30.50
2017-07-21T13:07:07.679Z,30.40
2017-07-21T13:09:36.000Z,30.80
2017-07-21T13:12:04.969Z,30.70
2017-07-21T13:14:34.074Z,31.60
2017-07-21T13:17:02.719Z,32.00
2017-07-21T13:19:31.226Z,31.50
2017-07-21T13:21:59.929Z,31.20
2017-07-21T13:24:28.278Z,30.70
2017-07-21T13:26:56.611Z,30.40
2017-07-21T13:29:25.277Z,30.10
2017-07-21T13:31:53.677Z,30.10
2017-07-21T13:34:21.988Z,30.00
2017-07-21T13:36:50.344Z,29.50
2017-07-21T13:39:18.664Z,28.70
2017-07-21T13:41:47.053Z,27.80
2017-07-21T13:44:15.608Z,27.50
2017-07-21T13:46:43.947Z,27.40
2017-07-21T13:49:12.424Z,26.80
2017-07-21T13:51:40.888Z,26.80
2017-07-21T13:54:09.586Z,27.50
2017-07-21T13:56:39.072Z,28.30
2017-07-21T13:59:07.979Z,28.30
2017-07-21T14:01:37.876Z,28.90
2017-07-21T14:04:06.828Z,29.40
2017-07-21T14:06:35.705Z,29.40
2017-07-21T14:09:04.429Z,29.70
2017-07-21T14:11:32.843Z,29.60
2017-07-21T14:14:02.230Z,29.00
2017-07-21T14:16:30.621Z,28.10
2017-07-21T14:18:58.985Z,27.30
2017-07-21T14:21:28.509Z,25.50
2017-07-21T14:23:56.824Z,25.40
2017-07-21T14:26:25.143Z,25.30
2017-07-21T14:28:54.114Z,26.40
2017-07-21T14:31:22.446Z,27.40
2017-07-21T14:33:50.921Z,28.00
2017-07-21T14:36:19.942Z,28.60
2017-07-21T14:38:48.250Z,28.80
2017-07-21T14:41:17.351Z,27.00
2017-07-21T14:43:46.148Z,26.90
2017-07-21T14:46:14.527Z,26.30
2017-07-21T14:48:42.921Z,25.50
2017-07-21T14:51:12.134Z,25.70
2017-07-21T14:53:40.640Z,25.60
2017-07-21T14:56:09.354Z,25.40
2017-07-21T14:58:38.497Z,26.40
2017-07-21T15:01:08.386Z,28.10
2017-07-21T15:03:36.951Z,28.00
2017-07-21T15:06:06.876Z,29.10
2017-07-21T15:08:35.966Z,29.50
2017-07-21T15:11:05.176Z,29.90
2017-07-21T15:13:34.291Z,29.90
2017-07-21T15:16:02.709Z,30.10
2017-07-21T15:18:31.097Z,30.30
2017-07-21T15:20:59.601Z,30.50
2017-07-21T15:23:27.928Z,30.30
2017-07-21T15:25:56.280Z,30.50
2017-07-21T15:28:24.695Z,30.60
2017-07-21T15:30:53.798Z,30.40
2017-07-21T15:33:22.863Z,30.40
2017-07-21T15:35:53.832Z,30.30
2017-07-21T15:38:22.214Z,30.10
2017-07-21T15:40:50.563Z,30.00
2017-07-21T15:43:19.140Z,29.90
2017-07-21T15:45:47.505Z,29.80
2017-07-21T15:48:16.137Z,30.10
2017-07-21T15:50:45.030Z,29.80
2017-07-21T15:53:13.561Z,30.10
2017-07-21T15:55:42.065Z,30.30
2017-07-21T15:58:10.810Z,30.40
2017-07-21T16:00:39.292Z,30.70
2017-07-21T16:03:08.941Z,30.70
2017-07-21T16:05:37.997Z,30.70
2017-07-21T16:08:07.857Z,30.40
2017-07-21T16:10:36.664Z,30.40
2017-07-21T16:13:06.570Z,30.30
2017-07-21T16:15:36.692Z,30.30
2017-07-21T16:18:05.652Z,30.00
2017-07-21T16:20:34.546Z,30.10
2017-07-21T16:23:03.001Z,30.30
2017-07-21T16:25:31.639Z,30.00
2017-07-21T16:28:00.216Z,29.40
2017-07-21T16:30:28.600Z,29.10
2017-07-21T16:32:56.920Z,28.40
2017-07-21T16:35:25.614Z,27.60
2017-07-21T16:37:54.753Z,26.90
2017-07-21T16:40:23.874Z,25.90
2017-07-21T16:42:52.543Z,25.90
2017-07-21T16:45:20.952Z,25.40
2017-07-21T16:47:50.411Z,24.60
2017-07-21T16:50:19.187Z,24.40
2017-07-21T16:52:47.518Z,25.30
2017-07-21T16:55:15.850Z,25.60
2017-07-21T16:57:45.404Z,26.50
2017-07-21T17:00:13.929Z,26.40
2017-07-21T17:02:42.370Z,25.70
2017-07-21T17:05:11.611Z,25.30
2017-07-21T17:07:40.024Z,25.20
2017-07-21T17:10:08.544Z,24.80
2017-07-21T17:12:37.907Z,24.20
2017-07-21T17:15:06.351Z,23.80
2017-07-21T17:17:34.820Z,23.70
2017-07-21T17:20:03.571Z,23.50
2017-07-21T17:22:31.980Z,23.40
2017-07-21T17:25:00.346Z,23.20
2017-07-21T17:27:29.064Z,22.90
2017-07-21T17:29:57.389Z,22.60
2017-07-21T17:32:25.909Z,22.60
2017-07-21T17:34:54.281Z,22.70
2017-07-21T17:37:23.381Z,22.80
2017-07-21T17:39:51.849Z,22.80
2017-07-21T17:42:21.790Z,22.80
2017-07-21T17:44:50.895Z,22.90
2017-07-21T17:47:19.989Z,22.90
2017-07-21T17:49:49.425Z,22.90
2017-07-21T17:52:17.771Z,22.90
2017-07-21T17:54:46.098Z,22.90
2017-07-21T17:57:14.626Z,22.80
2017-07-21T17:59:42.983Z,22.80
2017-07-21T18:02:12.187Z,23.80
2017-07-21T18:04:41.766Z,24.30
2017-07-21T18:07:10.519Z,24.30
2017-07-21T18:09:38.982Z,24.90
2017-07-21T18:12:08.771Z,25.30
2017-07-21T18:14:37.283Z,25.60
2017-07-21T18:17:05.890Z,25.70
2017-07-21T18:19:35.680Z,25.80
2017-07-21T18:22:04.421Z,25.80
2017-07-21T18:24:32.772Z,25.70
2017-07-21T18:27:02.257Z,25.90
2017-07-21T18:29:31.594Z,25.80
2017-07-21T18:31:59.987Z,25.90
2017-07-21T18:34:29.689Z,25.80
2017-07-21T18:36:58.017Z,25.60
2017-07-21T18:39:26.405Z,25.50
2017-07-21T18:41:55.888Z,25.40
2017-07-21T18:44:24.208Z,25.20
2017-07-21T18:46:53.280Z,25.00
2017-07-21T18:49:22.293Z,24.90
2017-07-21T18:51:50.652Z,24.80
2017-07-21T18:54:18.988Z,24.40
2017-07-21T18:56:48.424Z,23.50
2017-07-21T18:59:16.749Z,23.50
2017-07-21T19:01:45.838Z,23.00
2017-07-21T19:04:14.552Z,23.00
2017-07-21T19:06:42.912Z,22.80
2017-07-21T19:09:11.231Z,22.40
2017-07-21T19:11:40.072Z,22.00
2017-07-21T19:14:09.486Z,21.80
2017-07-21T19:16:38.713Z,21.20
2017-07-21T19:19:07.569Z,21.20
2017-07-21T19:21:36.135Z,21.00
2017-07-21T19:24:05.064Z,20.80
2017-07-21T19:26:34.550Z,20.70
2017-07-21T19:29:04.273Z,20.60
2017-07-21T19:31:40.645Z,20.40
2017-07-21T19:34:11.230Z,20.40
2017-07-21T19:36:40.199Z,20.30
2017-07-21T19:39:11.408Z,20.30
2017-07-21T19:41:39.888Z,20.20
2017-07-21T19:44:09.645Z,20.10
2017-07-21T19:46:38.467Z,20.00
2017-07-21T19:49:07.804Z,19.70
2017-07-21T19:51:37.362Z,19.70
2017-07-21T19:54:06.690Z,19.60
2017-07-21T19:56:35.116Z,19.60
2017-07-21T19:59:03.527Z,19.50
2017-07-21T20:01:32.935Z,19.40
2017-07-21T20:04:01.282Z,19.40
2017-07-21T20:06:29.610Z,19.40
2017-07-21T20:08:58.507Z,19.30
2017-07-21T20:11:26.850Z,19.30
2017-07-21T20:13:55.157Z,19.30
2017-07-21T20:16:24.296Z,19.20
2017-07-21T20:18:52.664Z,19.20
2017-07-21T20:21:21.538Z,19.10
2017-07-21T20:23:51.179Z,19.10
2017-07-21T20:26:19.591Z,19.10
2017-07-21T20:28:48.060Z,19.00
2017-07-21T20:31:16.670Z,19.00
2017-07-21T20:33:45.060Z,19.00
2017-07-21T20:36:14.019Z,18.90
2017-07-21T20:38:42.674Z,18.90
2017-07-21T20:41:11.126Z,18.90
2017-07-21T20:43:39.819Z,18.80
2017-07-21T20:46:10.437Z,18.70
2017-07-21T20:48:40.325Z,18.70
2017-07-21T20:51:09.278Z,18.70
2017-07-21T20:53:38.370Z,18.70
2017-07-21T20:56:07.131Z,18.60
2017-07-21T20:58:36.574Z,18.60
2017-07-21T21:01:06.505Z,18.60
2017-07-21T21:03:36.585Z,18.50
2017-07-21T21:06:05.761Z,18.60
2017-07-21T21:08:35.810Z,18.60
2017-07-21T21:11:04.462Z,18.60
2017-07-21T21:13:32.973Z,18.50
2017-07-21T21:16:01.707Z,18.50
2017-07-21T21:18:30.108Z,18.50
2017-07-21T21:20:58.424Z,18.50
2017-07-21T21:23:27.062Z,18.60
2017-07-21T21:25:55.377Z,18.60
2017-07-21T21:28:23.787Z,18.60
2017-07-21T21:30:53.630Z,18.50
2017-07-21T21:33:21.948Z,18.50
2017-07-21T21:35:51.060Z,18.60
2017-07-21T21:38:19.554Z,18.50
2017-07-21T21:40:47.871Z,18.40
2017-07-21T21:43:16.330Z,18.40
2017-07-21T21:45:47.377Z,18.40
2017-07-21T21:48:15.800Z,18.30
2017-07-21T21:50:45.000Z,18.30
2017-07-21T21:53:15.116Z,18.30
2017-07-21T21:55:44.431Z,18.30
2017-07-21T21:58:12.880Z,18.30
2017-07-21T22:00:41.697Z,18.20
2017-07-21T22:03:10.256Z,18.20
2017-07-21T22:05:39.616Z,18.10
2017-07-21T22:08:08.586Z,18.10
2017-07-21T22:10:37.886Z,18.00
2017-07-21T22:13:06.293Z,18.00
2017-07-21T22:15:47.738Z,18.00
2017-07-21T22:18:16.045Z,18.00
2017-07-21T22:20:44.429Z,17.90
2017-07-21T22:23:13.153Z,17.90
2017-07-21T22:25:42.420Z,18.00
2017-07-21T22:28:10.939Z,17.90
2017-07-21T22:30:39.803Z,17.90
2017-07-21T22:33:08.656Z,17.90
2017-07-21T22:35:37.284Z,17.90
2017-07-21T22:38:06.348Z,17.80
2017-07-21T22:40:35.067Z,17.90
2017-07-21T22:43:03.808Z,17.90
2017-07-21T22:45:32.805Z,17.80
2017-07-21T22:48:01.244Z,17.80
2017-07-21T22:50:29.706Z,17.70
2017-07-21T22:52:58.555Z,17.70
2017-07-21T22:55:26.962Z,17.60
2017-07-21T22:57:55.436Z,17.60
2017-07-21T23:00:24.810Z,17.50
2017-07-21T23:02:53.124Z,17.50
2017-07-21T23:05:22.213Z,17.50
2017-07-21T23:07:51.521Z,17.40
2017-07-21T23:10:19.961Z,17.40
2017-07-21T23:12:49.054Z,17.40
2017-07-21T23:15:17.737Z,17.40
2017-07-21T23:17:46.174Z,17.50
2017-07-21T23:20:14.655Z,17.40
2017-07-21T23:22:43.590Z,17.40
2017-07-21T23:25:12.827Z,17.40
2017-07-21T23:27:41.325Z,17.30
2017-07-21T23:30:10.820Z,17.30
2017-07-21T23:32:39.601Z,17.30
2017-07-21T23:35:09.173Z,17.20
2017-07-21T23:37:39.037Z,17.20
2017-07-21T23:40:07.653Z,17.20
2017-07-21T23:42:37.051Z,17.20
2017-07-21T23:45:07.237Z,17.10
2017-07-21T23:47:36.067Z,17.20
2017-07-21T23:50:04.991Z,17.20
2017-07-21T23:52:33.615Z,17.10
2017-07-21T23:55:01.976Z,17.20
2017-07-21T23:57:30.564Z,17.10
2017-07-21T23:59:59.541Z,17.10
